• Join FlightAware (Why Join?)
  • Login
  • US Flag 
01:16PM EDT


 

Airport Tracker/Info


-or-


 

Live Flight TrackerFlight Track Log ✈ N298EU ✈ 20-Jun-2013 ✈ N41 - KLWB

Flight Track Log - Related Links

Times and Time Zones

All times are in EDT time to prevent confusion due to time zone crossing. See the N298EU flight status page for this flight to view local times or setup timezone preferences in your user account.

Time Position Orientation Groundspeed Altitude Reporting Facility
EDT Latitude Longitude Course Direction KTS MPH feet Rate Location/Type
11:58AM 41.6417 -73.1622 240° Southwest 154 177 8,500  Level Boston Center
11:58AM 41.6225 -73.2064 240° Southwest 157 181 8,500 -60 Level Boston Center
12:00PM 41.5950 -73.2672 239° Southwest 159 183 8,400  Descending Boston Center
12:00PM 41.5886 -73.2839 243° Southwest 137 158 8,500 60 Climbing Boston Center
12:01PM 41.5611 -73.3417 238° Southwest 156 180 8,500  Level Boston Center
12:02PM 41.5400 -73.3886 239° Southwest 162 186 8,500  Level Boston Center
12:03PM 41.5144 -73.4436 238° Southwest 162 186 8,500  Level Boston Center
12:04PM 41.4931 -73.4850 235° Southwest 162 186 8,500  Level Boston Center
12:06PM 41.4500 -73.5667 235° Southwest 156 180 8,500  Level New York TRACON
12:07PM 41.4333 -73.6167 246° West 156 180 8,500  Level New York TRACON
12:08PM 41.4000 -73.6667 228° Southwest 162 186 8,500  Level New York TRACON
12:09PM 41.3833 -73.7167 246° West 163 188 8,500 -60 Level New York TRACON
12:14PM 41.2550 -73.9870 246° West 158 182 8,200 -60 Descending FlightAware
12:15PM 41.2460 -74.0040 235° Southwest 158 182 8,200  Level FlightAware
12:15PM 41.2342 -74.0294 238° Southwest 161 185 8,200  Level FlightAware ADS-B
12:16PM 41.2200 -74.0580 237° Southwest 160 184 8,200  Level FlightAware
12:16PM 41.2090 -74.0820 239° Southwest 160 184 8,200  Level FlightAware
12:17PM 41.1980 -74.1050 238° Southwest 160 184 8,200  Level FlightAware
12:17PM 41.1880 -74.1240 235° Southwest 160 184 8,200  Level FlightAware
12:17PM 41.1800 -74.1420 239° Southwest 160 184 8,200  Level FlightAware
12:18PM 41.1720 -74.1590 238° Southwest 160 184 8,200  Level FlightAware
12:22PM 41.0730 -74.3660 238° Southwest 163 188 8,200  Level FlightAware
12:22PM 41.0646 -74.3822 235° Southwest 8,200  Level FlightAware ADS-B
12:23PM 41.0500 -74.4126 238° Southwest 160 184 8,200  Level FlightAware ADS-B
12:23PM 41.0439 -74.4251 237° Southwest 160 184 8,200  Level FlightAware ADS-B
12:23PM 41.0376 -74.4383 238° Southwest 160 184 8,200  Level FlightAware ADS-B
12:24PM 41.0274 -74.4594 237° Southwest 161 185 8,200  Level FlightAware ADS-B
12:24PM 41.0060 -74.5040 238° Southwest 159 183 8,200  Level FlightAware
12:26PM 40.9770 -74.5620 236° Southwest 160 184 8,200  Level FlightAware
12:26PM 40.9920 -74.5330 56° Northeast 160 184 8,200  Level FlightAware
12:26PM 40.9590 -74.5990 237° Southwest 161 185 8,200  Level FlightAware
12:27PM 40.9460 -74.6270 238° Southwest 163 188 8,200  Level FlightAware
12:27PM 40.9420 -74.6360 240° Southwest 163 188 8,200  Level FlightAware
12:28PM 40.9310 -74.6570 235° Southwest 164 189 8,200  Level FlightAware
12:28PM 40.9180 -74.6850 238° Southwest 163 188 8,200  Level FlightAware
12:28PM 40.9100 -74.7010 237° Southwest 163 188 8,200  Level FlightAware
12:29PM 40.8940 -74.7340 237° Southwest 162 186 8,200  Level FlightAware
12:29PM 40.8830 -74.7560 237° Southwest 162 186 8,200  Level FlightAware
12:30PM 40.8698 -74.7829 237° Southwest 8,200  Level FlightAware ADS-B
12:30PM 40.8647 -74.7933 237° Southwest 163 188 8,200  Level FlightAware ADS-B
12:31PM 40.8546 -74.8138 237° Southwest 164 189 8,200  Level FlightAware ADS-B
12:31PM 40.8472 -74.8289 237° Southwest 165 190 8,200  Level FlightAware ADS-B
12:31PM 40.8368 -74.8500 237° Southwest 162 186 8,200  Level FlightAware ADS-B
12:32PM 40.8256 -74.8729 237° Southwest 161 185 8,200  Level FlightAware ADS-B
12:32PM 40.8130 -74.8980 236° Southwest 162 186 8,200  Level FlightAware
12:33PM 40.8010 -74.9220 237° Southwest 163 188 8,200  Level FlightAware
12:33PM 40.7900 -74.9450 238° Southwest 162 186 8,200  Level FlightAware
12:34PM 40.7730 -74.9800 237° Southwest 161 185 8,200  Level FlightAware
12:34PM 40.7673 -74.9911 236° Southwest 163 188 8,200  Level FlightAware ADS-B
12:34PM 40.7610 -75.0040 237° Southwest 163 188 8,200  Level FlightAware ADS-B
12:35PM 40.7528 -75.0205 237° Southwest 165 190 8,200  Level FlightAware ADS-B
12:35PM 40.7446 -75.0372 237° Southwest 163 188 8,200  Level FlightAware ADS-B
12:35PM 40.7378 -75.0510 237° Southwest 164 189 8,200  Level FlightAware ADS-B
12:36PM 40.7313 -75.0641 237° Southwest 166 191 8,200  Level FlightAware ADS-B
12:36PM 40.7244 -75.0780 237° Southwest 165 190 8,200  Level FlightAware ADS-B
12:36PM 40.7181 -75.0907 237° Southwest 165 190 8,200  Level FlightAware ADS-B
12:36PM 40.7106 -75.1059 237° Southwest 163 188 8,200  Level FlightAware ADS-B
12:37PM 40.7044 -75.1183 237° Southwest 163 188 8,200  Level FlightAware ADS-B
12:37PM 40.6982 -75.1311 237° Southwest 163 188 8,200  Level FlightAware ADS-B
12:37PM 40.6914 -75.1446 236° Southwest 163 188 8,200  Level FlightAware ADS-B
12:37PM 40.6851 -75.1576 237° Southwest 163 188 8,200  Level FlightAware ADS-B
12:38PM 40.6783 -75.1715 237° Southwest 163 188 8,200  Level FlightAware ADS-B
12:38PM 40.6719 -75.1844 237° Southwest 163 188 8,200  Level FlightAware ADS-B
12:38PM 40.6644 -75.1995 237° Southwest 163 188 8,200  Level FlightAware ADS-B
12:39PM 40.6510 -75.2260 236° Southwest 161 185 8,200  Level FlightAware
12:39PM 40.6460 -75.2365 238° Southwest 160 184 8,200  Level FlightAware ADS-B
12:39PM 40.6371 -75.2542 236° Southwest 163 188 8,200  Level FlightAware ADS-B
12:40PM 40.6300 -75.2686 237° Southwest 163 188 8,200  Level FlightAware ADS-B
12:40PM 40.6237 -75.2811 236° Southwest 160 184 8,200  Level FlightAware ADS-B
12:40PM 40.6159 -75.2969 237° Southwest 165 190 8,200  Level FlightAware ADS-B
12:41PM 40.6095 -75.3098 237° Southwest 165 190 8,200  Level FlightAware ADS-B
12:41PM 40.6025 -75.3239 237° Southwest 164 189 8,200  Level FlightAware ADS-B
12:41PM 40.5963 -75.3364 237° Southwest 164 189 8,200  Level FlightAware ADS-B
12:41PM 40.5892 -75.3504 236° Southwest 163 188 8,200  Level FlightAware ADS-B
12:42PM 40.5815 -75.3658 237° Southwest 164 189 8,200  Level FlightAware ADS-B
12:42PM 40.5733 -75.3823 237° Southwest 166 191 8,200  Level FlightAware ADS-B
12:42PM 40.5659 -75.3972 237° Southwest 166 191 8,200  Level FlightAware ADS-B
12:43PM 40.5586 -75.4117 236° Southwest 161 185 8,200  Level FlightAware ADS-B
12:43PM 40.5507 -75.4273 236° Southwest 160 184 8,200  Level FlightAware ADS-B
12:43PM 40.5402 -75.4482 237° Southwest 157 181 8,200  Level FlightAware ADS-B
12:44PM 40.5336 -75.4617 237° Southwest 158 182 8,200  Level FlightAware ADS-B
12:44PM 40.5269 -75.4751 237° Southwest 160 184 8,200  Level FlightAware ADS-B
12:44PM 40.5203 -75.4882 236° Southwest 159 183 8,200  Level FlightAware ADS-B
12:44PM 40.5136 -75.5017 237° Southwest 159 183 8,200  Level FlightAware ADS-B
12:45PM 40.5075 -75.5139 237° Southwest 161 185 8,200  Level FlightAware ADS-B
12:45PM 40.4989 -75.5312 237° Southwest 165 190 8,200  Level FlightAware ADS-B
12:45PM 40.4923 -75.5443 236° Southwest 165 190 8,200  Level FlightAware ADS-B
12:46PM 40.4863 -75.5559 236° Southwest 162 186 8,200  Level FlightAware ADS-B
12:46PM 40.4808 -75.5665 236° Southwest 161 185 8,200 180 Level FlightAware ADS-B
12:46PM 40.4747 -75.5791 238° Southwest 156 180 8,300 360 Climbing FlightAware ADS-B
12:46PM 40.4683 -75.5917 236° Southwest 156 180 8,400 180 Climbing FlightAware ADS-B
12:47PM 40.4620 -75.6036 235° Southwest 159 183 8,400  Level FlightAware ADS-B
12:47PM 40.4554 -75.6159 235° Southwest 161 185 8,400  Level FlightAware ADS-B
12:47PM 40.4489 -75.6281 235° Southwest 161 185 8,400 180 Level FlightAware ADS-B
12:47PM 40.4410 -75.6424 234° Southwest 156 180 8,500 120 Climbing FlightAware ADS-B
12:48PM 40.4341 -75.6547 234° Southwest 155 178 8,500 120 Level FlightAware ADS-B
12:48PM 40.4265 -75.6681 233° Southwest 159 183 8,600  Climbing FlightAware ADS-B
12:48PM 40.4156 -75.6864 232° Southwest 166 191 8,500 -180 Descending FlightAware ADS-B
12:49PM 40.4068 -75.7031 235° Southwest 163 188 8,500  Level FlightAware ADS-B
12:49PM 40.3990 -75.7165 233° Southwest 163 188 8,500  Level FlightAware ADS-B
12:49PM 40.3900 -75.7303 229° Southwest 166 191 8,500  Level FlightAware ADS-B
12:50PM 40.3811 -75.7439 229° Southwest 167 192 8,500  Level FlightAware ADS-B
12:50PM 40.3770 -75.7506 231° Southwest 169 194 8,500  Level FlightAware ADS-B
12:50PM 40.3739 -75.7559 232° Southwest 169 194 8,500  Level FlightAware ADS-B
12:50PM 40.3696 -75.7642 236° Southwest 165 190 8,500 -240 Level FlightAware ADS-B
12:50PM 40.3631 -75.7802 242° Southwest 167 192 8,400 -300 Descending FlightAware ADS-B
12:51PM 40.3545 -75.8044 245° Southwest 167 192 8,300 -180 Descending FlightAware ADS-B
12:51PM 40.3503 -75.8139 240° Southwest 169 194 8,300  Level FlightAware ADS-B
12:51PM 40.3432 -75.8266 234° Southwest 166 191 8,300 180 Level FlightAware ADS-B
12:51PM 40.3355 -75.8405 234° Southwest 161 185 8,400 180 Climbing FlightAware ADS-B
12:52PM 40.3288 -75.8529 235° Southwest 159 183 8,400 -180 Level FlightAware ADS-B
12:52PM 40.3180 -75.8764 239° Southwest 159 183 8,300 -180 Descending FlightAware ADS-B
12:52PM 40.3143 -75.8859 243° Southwest 167 192 8,300 -180 Level FlightAware ADS-B
12:53PM 40.3059 -75.9072 243° Southwest 167 192 8,200 -180 Descending FlightAware ADS-B
12:53PM 40.3014 -75.9173 240° Southwest 167 192 8,200  Level FlightAware ADS-B
12:53PM 40.2956 -75.9287 236° Southwest 166 191 8,200  Level FlightAware ADS-B
12:53PM 40.2927 -75.9337 233° Southwest 166 191 8,200  Level FlightAware ADS-B
12:53PM 40.2879 -75.9412 230° Southwest 166 191 8,200  Level FlightAware ADS-B
12:54PM 40.2806 -75.9541 233° Southwest 165 190 8,200  Level FlightAware ADS-B
12:54PM 40.2740 -75.9693 240° Southwest 164 189 8,200  Level FlightAware ADS-B
12:54PM 40.2683 -75.9827 241° Southwest 163 188 8,200  Level FlightAware ADS-B
12:54PM 40.2616 -75.9958 236° Southwest 164 189 8,200  Level FlightAware ADS-B
12:55PM 40.2556 -76.0074 236° Southwest 164 189 8,200  Level FlightAware ADS-B
12:55PM 40.2510 -76.0161 235° Southwest 163 188 8,200  Level FlightAware ADS-B
12:55PM 40.2451 -76.0275 236° Southwest 162 186 8,200  Level FlightAware ADS-B
12:55PM 40.2397 -76.0390 238° Southwest 162 186 8,200  Level FlightAware ADS-B
12:56PM 40.2313 -76.0552 236° Southwest 164 189 8,200  Level FlightAware ADS-B
12:56PM 40.2261 -76.0661 238° Southwest 165 190 8,200  Level FlightAware ADS-B
12:56PM 40.2182 -76.0823 237° Southwest 165 190 8,200  Level FlightAware ADS-B
12:57PM 40.2060 -76.1048 235° Southwest 166 191 8,200  Level FlightAware ADS-B
12:57PM 40.1986 -76.1191 236° Southwest 164 189 8,200  Level FlightAware ADS-B
12:57PM 40.1919 -76.1324 237° Southwest 163 188 8,200  Level FlightAware ADS-B
12:58PM 40.1829 -76.1500 236° Southwest 166 191 8,200  Level FlightAware ADS-B
12:58PM 40.1721 -76.1711 236° Southwest 165 190 8,200  Level FlightAware ADS-B
12:58PM 40.1658 -76.1834 236° Southwest 166 191 8,200  Level FlightAware ADS-B
12:59PM 40.1585 -76.1983 237° Southwest 162 186 8,200  Level FlightAware ADS-B
12:59PM 40.1566 -76.2042 247° West 159 183 8,200  Level FlightAware ADS-B
12:59PM 40.1532 -76.2147 247° West 162 186 8,200  Level FlightAware ADS-B
12:59PM 40.1482 -76.2242 235° Southwest 167 192 8,200  Level FlightAware ADS-B
12:59PM 40.1407 -76.2356 229° Southwest 164 189 8,200  Level FlightAware ADS-B
01:00PM 40.1331 -76.2469 229° Southwest 167 192 8,200  Level FlightAware ADS-B
01:00PM 40.1252 -76.2585 228° Southwest 167 192 8,200  Level FlightAware ADS-B
01:00PM 40.1177 -76.2700 230° Southwest 165 190 8,200  Level FlightAware ADS-B
01:00PM 40.1095 -76.2826 230° Southwest 168 193 8,200  Level FlightAware ADS-B
01:00PM 40.1078 -76.2855 233° Southwest 167 192 8,200  Level FlightAware ADS-B
01:01PM 40.1039 -76.2936 238° Southwest 164 189 8,200  Level FlightAware ADS-B
01:01PM 40.0973 -76.3069 237° Southwest 165 190 8,200  Level FlightAware ADS-B
01:01PM 40.0891 -76.3229 236° Southwest 166 191 8,200  Level FlightAware ADS-B
01:01PM 40.0801 -76.3401 236° Southwest 166 191 8,200  Level FlightAware ADS-B
01:02PM 40.0664 -76.3666 236° Southwest 163 188 8,200  Level FlightAware ADS-B
01:03PM 40.0510 -76.3960 236° Southwest 159 183 8,200  Level FlightAware
01:03PM 40.0310 -76.4350 236° Southwest 158 182 8,200  Level FlightAware
01:04PM 40.0220 -76.4540 238° Southwest 158 182 8,200  Level FlightAware
01:04PM 40.0150 -76.4660 233° Southwest 159 183 8,200  Level FlightAware
01:05PM 40.0060 -76.4860 240° Southwest 159 183 8,200  Level FlightAware
01:05PM 39.9956 -76.5043 233° Southwest 166 191 8,200 420 Level FlightAware ADS-B
01:08PM 39.9310 -76.6290 236° Southwest 9,900 480 Climbing FlightAware
01:09PM 39.9150 -76.6600 236° Southwest 142 163 10,100 180 Climbing FlightAware
01:09PM 39.8940 -76.7010 236° Southwest 162 186 10,200 60 Climbing FlightAware
01:10PM 39.8750 -76.7370 235° Southwest 164 189 10,200  Level FlightAware
01:11PM 39.8600 -76.7640 234° Southwest 164 189 10,200  Level FlightAware
01:12PM 39.8430 -76.7960 235° Southwest 164 189 10,200  Level FlightAware
01:15PM 39.7400 -76.9950 236° Southwest 172 198 10,200  Level FlightAware
01:16PM 39.7180 -77.0370 236° Southwest 171 197 10,200  Level FlightAware
01:17PM 39.7020 -77.0670 235° Southwest 171 197 10,200  Level FlightAware
01:17PM 39.6880 -77.0940 236° Southwest 171 197 10,200  Level FlightAware
01:18PM 39.6620 -77.1440 236° Southwest 172 198 10,200  Level FlightAware
01:19PM 39.6400 -77.1870 236° Southwest 175 201 10,200  Level FlightAware
01:20PM 39.6240 -77.2160 234° Southwest 175 201 10,200  Level FlightAware
01:20PM 39.6020 -77.2580 236° Southwest 173 199 10,200  Level FlightAware
01:21PM 39.5850 -77.2900 235° Southwest 174 200 10,200  Level FlightAware
01:22PM 39.5660 -77.3260 236° Southwest 174 200 10,200  Level FlightAware
01:22PM 39.5470 -77.3610 235° Southwest 174 200 10,200  Level FlightAware
01:23PM 39.5270 -77.4000 236° Southwest 175 201 10,200  Level FlightAware
01:24PM 39.5020 -77.4480 236° Southwest 174 200 10,200  Level FlightAware
01:25PM 39.4780 -77.4920 235° Southwest 174 200 10,200  Level FlightAware
01:26PM 39.4500 -77.5440 235° Southwest 174 200 10,200  Level FlightAware
01:27PM 39.4320 -77.5770 235° Southwest 172 198 10,200  Level FlightAware
01:27PM 39.4140 -77.6110 236° Southwest 172 198 10,200  Level FlightAware
01:28PM 39.3940 -77.6490 236° Southwest 172 198 10,200  Level FlightAware
01:29PM 39.3740 -77.6870 236° Southwest 171 197 10,200  Level FlightAware
01:29PM 39.3560 -77.7210 236° Southwest 173 199 10,200  Level FlightAware
01:30PM 39.3390 -77.7520 235° Southwest 176 203 10,200  Level FlightAware
01:31PM 39.3210 -77.7860 236° Southwest 173 199 10,200  Level FlightAware
01:31PM 39.3010 -77.8230 235° Southwest 173 199 10,200  Level FlightAware
01:32PM 39.2790 -77.8640 235° Southwest 173 199 10,200  Level FlightAware
01:33PM 39.2600 -77.9000 236° Southwest 175 201 10,200  Level FlightAware
01:34PM 39.2390 -77.9380 234° Southwest 173 199 10,200  Level FlightAware
01:34PM 39.2210 -77.9710 235° Southwest 174 200 10,200  Level FlightAware
01:35PM 39.2050 -78.0010 235° Southwest 173 199 10,200  Level FlightAware
01:36PM 39.1720 -78.0610 235° Southwest 174 200 10,200  Level FlightAware
01:37PM 39.1500 -78.1020 235° Southwest 176 203 10,200  Level FlightAware
01:38PM 39.1280 -78.1430 235° Southwest 176 203 10,200  Level FlightAware
01:38PM 39.1090 -78.1780 235° Southwest 178 205 10,200  Level FlightAware
01:39PM 39.0830 -78.2250 235° Southwest 175 201 10,200  Level FlightAware
01:40PM 39.0600 -78.2670 235° Southwest 175 201 10,200  Level FlightAware
01:41PM 39.0370 -78.3100 235° Southwest 173 199 10,200  Level FlightAware
01:42PM 39.0190 -78.3430 235° Southwest 173 199 10,200  Level FlightAware
01:42PM 38.9980 -78.3810 235° Southwest 171 197 10,200  Level FlightAware
01:43PM 38.9750 -78.4230 235° Southwest 173 199 10,200 120 Level FlightAware
01:44PM 38.9540 -78.4600 234° Southwest 163 188 10,400 180 Climbing FlightAware
01:45PM 38.9370 -78.4920 236° Southwest 168 193 10,500 60 Climbing FlightAware
01:46PM 38.9090 -78.5430 235° Southwest 173 199 10,500  Level FlightAware
01:46PM 38.8920 -78.5740 235° Southwest 170 196 10,500  Level FlightAware
01:47PM 38.8710 -78.6130 235° Southwest 171 197 10,500  Level FlightAware
01:48PM 38.8540 -78.6440 235° Southwest 171 197 10,500  Level FlightAware
01:48PM 38.8350 -78.6790 235° Southwest 172 198 10,500  Level FlightAware
01:49PM 38.8150 -78.7140 234° Southwest 172 198 10,500  Level FlightAware
01:50PM 38.7970 -78.7470 235° Southwest 173 199 10,500 120 Level FlightAware
01:51PM 38.7703 -78.8136 235° Southwest 176 203 10,800 120 Climbing Washington Center
01:52PM 38.7500 -78.8686 245° Southwest 176 203 10,800  Level Washington Center
01:53PM 38.7194 -78.9178 231° Southwest 176 203 10,800  Level Washington Center
01:54PM 38.6908 -78.9669 233° Southwest 181 208 10,800 -60 Level Washington Center
01:55PM 38.6622 -79.0189 235° Southwest 186 214 10,700 -120 Descending Washington Center
01:56PM 38.6358 -79.0681 236° Southwest 186 214 10,600 -660 Descending Washington Center
01:57PM 38.6050 -79.1278 237° Southwest 192 221 9,400 -1,200 Descending Washington Center
01:58PM 38.5722 -79.1767 229° Southwest 192 221 8,300 -1,080 Descending Washington Center
01:59PM 38.5417 -79.2256 231° Southwest 198 228 7,300 -960 Descending Washington Center
02:00PM 38.5086 -79.2825 233° Southwest 191 220 6,500 -480 Descending Washington Center
02:01PM 38.4947 -79.3242 247° West 178 205 6,400 -60 Descending Washington Center
02:02PM 38.4700 -79.3864 243° Southwest 173 199 6,400  Level Washington Center
02:03PM 38.4433 -79.4331 234° Southwest 168 193 6,500  Climbing Washington Center
02:04PM 38.4131 -79.4711 225° Southwest 173 199 6,400 -60 Descending Washington Center
02:05PM 38.3883 -79.5200 237° Southwest 173 199 6,400  Level Washington Center
02:06PM 38.3619 -79.5664 234° Southwest 173 199 6,500 -120 Climbing Washington Center
02:07PM 38.3311 -79.6125 230° Southwest 173 199 6,200 -300 Descending Washington Center
02:08PM 38.3042 -79.6692 239° Southwest 173 199 6,000 -180 Descending Washington Center
02:09PM 38.2817 -79.7208 241° Southwest 173 199 5,900 -60 Descending Washington Center
02:10PM 38.2467 -79.7639 224° Southwest 173 199 5,900 -60 Level Washington Center
02:11PM 38.2164 -79.7992 222° Southwest 173 199 5,800 -180 Descending Washington Center
02:12PM 38.1817 -79.8369 221° Southwest 173 199 5,600 -120 Descending Washington Center
02:13PM 38.1469 -79.8719 218° Southwest 167 192 5,600  Level Washington Center
02:14PM 38.1244 -79.9181 238° Southwest 161 185 5,700  Climbing Washington Center
02:15PM 38.1058 -79.9725 247° West 155 178 5,700  Level Washington Center
02:16PM 38.0833 -80.0186 238° Southwest 155 178 5,700  Level Washington Center
02:17PM 38.0606 -80.0647 238° Southwest 155 178 5,700  Level Washington Center
02:18PM 38.0364 -80.1028 231° Southwest 160 184 5,700 -60 Level Washington Center
02:19PM 38.0136 -80.1517 239° Southwest 160 184 5,600 -180 Descending Washington Center
02:20PM 37.9850 -80.1919 228° Southwest 165 190 5,400 -180 Descending Washington Center
02:21PM 37.9467 -80.2133 204° Southwest 153 176 5,300 -300 Descending Washington Center
02:22PM 37.9019 -80.2317 198° South 153 176 4,900 -480 Descending Washington Center
02:23PM 37.8656 -80.2583 210° Southwest 153 176 4,400 -300 Descending Washington Center
02:24PM 37.8575 -80.3053 258° West 135 155 4,400 -180 Level Washington Center
02:25PM 37.8833 -80.3358 317° Northwest 113 130 4,100 -300 Descending Washington Center